createdAt,value
2016-09-24T00:01:04.299Z,15.61
2016-09-24T00:02:02.053Z,15.48
2016-09-24T00:02:29.537Z,15.38
2016-09-24T00:03:00.794Z,15.47
2016-09-24T00:03:26.475Z,15.54
2016-09-24T00:03:50.222Z,15.69
2016-09-24T00:04:13.944Z,15.67
2016-09-24T00:05:33.438Z,15.46
2016-09-24T00:05:55.157Z,15.38
2016-09-24T00:06:17.896Z,15.47
2016-09-24T00:06:48.421Z,15.63
2016-09-24T00:07:10.229Z,15.72
2016-09-24T00:07:31.976Z,15.69
2016-09-24T00:07:53.711Z,15.63
2016-09-24T00:08:15.419Z,15.64
2016-09-24T00:08:37.141Z,15.62
2016-09-24T00:09:04.191Z,15.63
2016-09-24T00:09:35.272Z,15.60
2016-09-24T00:09:58.103Z,15.48
2016-09-24T00:10:19.845Z,15.54
2016-09-24T00:10:41.650Z,15.61
2016-09-24T00:11:03.372Z,15.67
2016-09-24T00:11:25.157Z,15.68
2016-09-24T00:11:47.902Z,15.77
2016-09-24T00:12:14.453Z,15.85
2016-09-24T00:12:46.270Z,15.73
2016-09-24T00:13:44.024Z,15.46
2016-09-24T00:14:13.064Z,15.44
2016-09-24T00:14:39.580Z,15.46
2016-09-24T00:15:05.023Z,15.45
2016-09-24T00:15:37.361Z,15.42
2016-09-24T00:15:59.186Z,15.46
2016-09-24T00:16:22.895Z,15.55
2016-09-24T00:16:44.639Z,15.51
2016-09-24T00:17:06.389Z,15.36
2016-09-24T00:17:32.895Z,15.34
2016-09-24T00:17:59.397Z,15.29
2016-09-24T00:18:47.684Z,15.40
2016-09-24T00:19:09.499Z,15.36
2016-09-24T00:19:31.281Z,15.21
2016-09-24T00:19:53.020Z,15.06
2016-09-24T00:20:14.738Z,14.91
2016-09-24T00:20:44.066Z,14.95
2016-09-24T00:21:05.874Z,14.97
2016-09-24T00:21:27.612Z,14.99
2016-09-24T00:21:49.343Z,15.04
2016-09-24T00:22:19.291Z,15.25
2016-09-24T00:22:41.051Z,15.38
2016-09-24T00:23:07.593Z,15.47
2016-09-24T00:23:34.108Z,15.56
2016-09-24T00:23:58.588Z,15.64
2016-09-24T00:24:27.954Z,15.64
2016-09-24T00:24:49.769Z,15.63
2016-09-24T00:25:16.283Z,15.51
2016-09-24T00:25:38.044Z,15.45
2016-09-24T00:25:59.801Z,15.54
2016-09-24T00:26:21.612Z,15.44
2016-09-24T00:26:43.465Z,15.41
2016-09-24T00:27:10.959Z,15.42
2016-09-24T00:27:32.770Z,15.48
2016-09-24T00:27:54.542Z,15.49
2016-09-24T00:28:18.329Z,15.25
2016-09-24T00:29:11.302Z,15.05
2016-09-24T00:30:20.403Z,15.05
2016-09-24T00:30:42.274Z,15.03
2016-09-24T00:31:08.770Z,14.96
2016-09-24T00:31:30.534Z,14.96
2016-09-24T00:31:52.242Z,14.84
2016-09-24T00:32:13.974Z,14.73
2016-09-24T00:32:45.097Z,14.63
2016-09-24T00:33:09.715Z,14.66
2016-09-24T00:33:31.478Z,14.70
2016-09-24T00:33:53.340Z,14.69
2016-09-24T00:34:15.079Z,14.74
2016-09-24T00:34:41.581Z,14.75
2016-09-24T00:35:05.871Z,14.71
2016-09-24T00:36:11.225Z,14.66
2016-09-24T00:37:00.512Z,14.97
2016-09-24T00:37:25.199Z,15.15
2016-09-24T00:38:23.840Z,15.37
2016-09-24T00:38:57.871Z,15.25
2016-09-24T00:39:19.642Z,15.06
2016-09-24T00:39:46.173Z,14.90
2016-09-24T00:40:17.254Z,14.76
2016-09-24T00:41:05.561Z,14.72
2016-09-24T00:41:33.107Z,14.71
2016-09-24T00:41:55.843Z,14.75
2016-09-24T00:42:17.615Z,14.83
2016-09-24T00:42:40.393Z,14.87
2016-09-24T00:43:06.889Z,14.87
2016-09-24T00:43:28.671Z,14.92
2016-09-24T00:43:53.376Z,15.05
2016-09-24T00:44:17.180Z,15.03
2016-09-24T00:44:39.017Z,14.99
2016-09-24T00:45:01.783Z,15.05
2016-09-24T00:45:28.361Z,14.99
2016-09-24T00:45:50.108Z,14.86
2016-09-24T00:46:14.477Z,14.80
2016-09-24T00:46:36.486Z,14.87
2016-09-24T00:47:00.612Z,15.02
2016-09-24T00:47:27.101Z,15.05
2016-09-24T00:47:49.914Z,15.02
2016-09-24T00:48:16.436Z,14.96
2016-09-24T00:48:38.285Z,14.87
2016-09-24T00:49:00.052Z,14.82
2016-09-24T00:49:48.347Z,14.80
2016-09-24T00:51:19.395Z,14.93
2016-09-24T00:51:41.124Z,14.85
2016-09-24T00:52:02.868Z,14.82
2016-09-24T00:53:00.634Z,14.98
2016-09-24T00:53:27.432Z,14.96
2016-09-24T00:54:01.352Z,15.07
2016-09-24T00:54:54.564Z,15.38
2016-09-24T00:55:17.297Z,15.39
2016-09-24T00:55:48.568Z,15.33
2016-09-24T00:56:15.153Z,15.26
2016-09-24T00:56:36.897Z,15.26
2016-09-24T00:56:58.677Z,15.28
2016-09-24T00:57:20.494Z,15.39
2016-09-24T00:57:42.286Z,15.35
2016-09-24T00:58:06.822Z,15.35
2016-09-24T00:58:28.610Z,15.36
2016-09-24T00:58:50.395Z,15.40
2016-09-24T00:59:12.133Z,15.43
2016-09-24T00:59:33.948Z,15.28
2016-09-24T01:00:03.175Z,15.06
2016-09-24T01:00:29.755Z,15.00
2016-09-24T01:00:54.101Z,14.90
2016-09-24T01:01:15.880Z,14.90
2016-09-24T01:01:38.636Z,14.92
2016-09-24T01:02:07.682Z,14.95
2016-09-24T01:03:59.502Z,14.96
2016-09-24T01:04:26.009Z,14.90
2016-09-24T01:04:48.770Z,14.79
2016-09-24T01:05:17.712Z,14.69
2016-09-24T01:05:49.054Z,14.74
2016-09-24T01:06:10.786Z,14.78
2016-09-24T01:07:05.827Z,14.69
2016-09-24T01:07:55.221Z,15.02
2016-09-24T01:08:16.998Z,15.20
2016-09-24T01:08:39.739Z,15.25
2016-09-24T01:09:11.018Z,15.08
2016-09-24T01:09:33.740Z,14.88
2016-09-24T01:10:00.243Z,14.74
2016-09-24T01:10:21.997Z,14.70
2016-09-24T01:11:29.295Z,14.65
2016-09-24T01:11:51.019Z,14.63
2016-09-24T01:12:12.745Z,14.61
2016-09-24T01:12:37.229Z,14.57
2016-09-24T01:13:36.842Z,14.62
2016-09-24T01:14:25.242Z,14.57
2016-09-24T01:14:46.970Z,14.57
2016-09-24T01:15:18.238Z,14.75
2016-09-24T01:16:33.975Z,14.85
2016-09-24T01:16:55.788Z,14.92
2016-09-24T01:17:17.527Z,14.88
2016-09-24T01:18:11.514Z,14.95
2016-09-24T01:18:34.247Z,14.99
2016-09-24T01:18:56.103Z,14.99
2016-09-24T01:19:19.840Z,15.02
2016-09-24T01:19:46.157Z,15.20
2016-09-24T01:20:12.715Z,15.17
2016-09-24T01:20:35.504Z,15.15
2016-09-24T01:20:57.323Z,15.22
2016-09-24T01:21:19.057Z,15.22
2016-09-24T01:21:40.798Z,15.16
2016-09-24T01:22:05.131Z,15.18
2016-09-24T01:22:29.479Z,14.97
2016-09-24T01:22:51.221Z,14.81
2016-09-24T01:23:16.580Z,14.63
2016-09-24T01:23:48.840Z,14.34
2016-09-24T01:24:10.558Z,14.26
2016-09-24T01:24:58.906Z,14.11
2016-09-24T01:25:29.089Z,14.16
2016-09-24T01:26:17.387Z,14.32
2016-09-24T01:26:43.877Z,14.54
2016-09-24T01:27:06.603Z,14.77
2016-09-24T01:27:28.360Z,14.90
2016-09-24T01:27:52.872Z,14.97
2016-09-24T01:28:22.277Z,15.02
2016-09-24T01:28:51.164Z,15.08
2016-09-24T01:29:49.919Z,14.80
2016-09-24T01:30:16.415Z,14.70
2016-09-24T01:30:48.689Z,14.64
2016-09-24T01:31:18.178Z,14.62
2016-09-24T01:32:20.223Z,14.95
2016-09-24T01:32:46.738Z,14.74
2016-09-24T01:33:14.232Z,14.65
2016-09-24T01:33:38.791Z,14.72
2016-09-24T01:34:27.017Z,14.86
2016-09-24T01:34:53.512Z,14.93
2016-09-24T01:35:18.246Z,14.82
2016-09-24T01:35:41.974Z,14.70
2016-09-24T01:36:04.687Z,14.58
2016-09-24T01:36:31.186Z,14.47
2016-09-24T01:36:57.484Z,14.47
2016-09-24T01:37:21.200Z,14.48
2016-09-24T01:37:46.752Z,14.42
2016-09-24T01:38:08.498Z,14.27
2016-09-24T01:39:03.347Z,14.18
2016-09-24T01:39:25.085Z,14.21
2016-09-24T01:39:46.896Z,14.23
2016-09-24T01:40:08.640Z,14.24
2016-09-24T01:40:30.361Z,14.34
2016-09-24T01:40:53.107Z,14.41
2016-09-24T01:41:14.906Z,14.48
2016-09-24T01:42:07.753Z,14.66
2016-09-24T01:42:29.488Z,14.77
2016-09-24T01:42:55.133Z,14.87
2016-09-24T01:43:17.865Z,14.87
2016-09-24T01:44:17.645Z,14.64
2016-09-24T01:45:12.647Z,14.74
2016-09-24T01:45:34.387Z,14.77
2016-09-24T01:46:08.573Z,14.81
2016-09-24T01:47:14.051Z,14.57
2016-09-24T01:47:35.779Z,14.53
2016-09-24T01:48:05.092Z,14.37
2016-09-24T01:48:31.399Z,14.24
2016-09-24T01:48:53.123Z,14.24
2016-09-24T01:49:15.847Z,14.41
2016-09-24T01:49:40.466Z,14.58
2016-09-24T01:50:02.215Z,14.53
2016-09-24T01:50:26.586Z,14.47
2016-09-24T01:50:48.323Z,14.49
2016-09-24T01:51:10.074Z,14.52
2016-09-24T01:51:31.869Z,14.49
2016-09-24T01:51:59.365Z,14.46
2016-09-24T01:52:21.130Z,14.38
2016-09-24T01:52:42.852Z,14.49
2016-09-24T01:53:12.193Z,14.59
2016-09-24T01:53:34.919Z,14.58
2016-09-24T01:53:56.711Z,14.60
2016-09-24T01:54:18.545Z,14.70
2016-09-24T01:54:41.430Z,14.74
2016-09-24T01:55:03.185Z,14.64
2016-09-24T01:55:51.470Z,14.56
2016-09-24T01:56:13.213Z,14.42
2016-09-24T01:56:35.018Z,14.39
2016-09-24T01:56:56.743Z,14.40
2016-09-24T01:57:18.465Z,14.29
2016-09-24T01:57:40.187Z,14.23
2016-09-24T01:58:06.714Z,14.21
2016-09-24T01:58:37.818Z,14.21
2016-09-24T01:59:01.570Z,14.22
2016-09-24T01:59:23.368Z,14.26
2016-09-24T01:59:46.119Z,14.29
2016-09-24T02:00:07.828Z,14.24
2016-09-24T02:00:30.552Z,14.27
2016-09-24T02:00:52.266Z,14.27
2016-09-24T02:01:14.069Z,14.36
2016-09-24T02:01:36.801Z,14.43
2016-09-24T02:02:03.301Z,14.50
2016-09-24T02:02:29.815Z,14.31
2016-09-24T02:02:56.372Z,14.16
2016-09-24T02:03:22.920Z,14.03
2016-09-24T02:03:49.412Z,14.10
2016-09-24T02:04:37.756Z,14.11
2016-09-24T02:04:59.499Z,14.07
2016-09-24T02:05:21.294Z,14.08
2016-09-24T02:05:43.106Z,14.08
2016-09-24T02:06:16.389Z,14.04
2016-09-24T02:06:48.666Z,13.93
2016-09-24T02:07:11.387Z,13.92
2016-09-24T02:07:38.274Z,13.89
2016-09-24T02:08:32.114Z,13.75
2016-09-24T02:09:38.283Z,13.84
2016-09-24T02:10:00.028Z,13.87
2016-09-24T02:10:21.796Z,13.91
2016-09-24T02:10:52.869Z,13.95
2016-09-24T02:11:52.656Z,14.27
2016-09-24T02:12:14.406Z,14.19
2016-09-24T02:12:45.699Z,14.10
2016-09-24T02:13:12.194Z,14.11
2016-09-24T02:13:33.916Z,14.09
2016-09-24T02:13:56.654Z,14.11
2016-09-24T02:14:23.157Z,14.21
2016-09-24T02:14:49.647Z,14.29
2016-09-24T02:15:11.397Z,14.34
2016-09-24T02:15:34.167Z,14.45
2016-09-24T02:15:55.909Z,14.46
2016-09-24T02:16:18.639Z,14.45
2016-09-24T02:16:41.405Z,14.43
2016-09-24T02:17:03.144Z,14.21
2016-09-24T02:17:27.784Z,14.09
2016-09-24T02:17:49.507Z,13.96
2016-09-24T02:18:12.226Z,13.95
2016-09-24T02:19:05.222Z,13.72
2016-09-24T02:19:27.932Z,13.73
2016-09-24T02:19:49.653Z,13.69
2016-09-24T02:20:11.458Z,13.61
2016-09-24T02:20:37.947Z,13.63
2016-09-24T02:21:05.426Z,13.55
2016-09-24T02:21:36.699Z,13.63
2016-09-24T02:21:59.426Z,13.65
2016-09-24T02:22:21.145Z,13.61
2016-09-24T02:22:42.873Z,13.69
2016-09-24T02:23:04.585Z,13.90
2016-09-24T02:23:26.303Z,14.05
2016-09-24T02:23:57.568Z,14.26
2016-09-24T02:24:19.343Z,14.30
2016-09-24T02:24:41.080Z,14.28
2016-09-24T02:25:03.798Z,14.28
2016-09-24T02:25:35.062Z,14.32
2016-09-24T02:26:35.401Z,14.12
2016-09-24T02:26:57.112Z,13.99
2016-09-24T02:27:24.603Z,13.92
2016-09-24T02:27:46.353Z,13.93
2016-09-24T02:28:14.841Z,14.04
2016-09-24T02:28:43.894Z,14.10
2016-09-24T02:29:05.637Z,14.01
2016-09-24T02:29:27.356Z,13.96
2016-09-24T02:29:49.081Z,14.10
2016-09-24T02:30:37.355Z,13.94
2016-09-24T02:30:59.151Z,13.90
2016-09-24T02:31:58.441Z,13.75
2016-09-24T02:32:22.747Z,13.71
2016-09-24T02:33:25.084Z,13.62
2016-09-24T02:33:46.844Z,13.60
2016-09-24T02:34:17.262Z,13.66
2016-09-24T02:34:39.048Z,13.68
2016-09-24T02:35:00.825Z,13.79
2016-09-24T02:35:22.607Z,13.89
2016-09-24T02:35:49.042Z,14.04
2016-09-24T02:36:11.774Z,14.18
2016-09-24T02:36:33.513Z,14.24
2016-09-24T02:36:55.269Z,14.25
2016-09-24T02:37:18.044Z,14.34
2016-09-24T02:37:39.867Z,14.40
2016-09-24T02:38:01.582Z,14.43
2016-09-24T02:38:29.097Z,14.36
2016-09-24T02:38:59.253Z,14.37
2016-09-24T02:39:21.983Z,14.40
2016-09-24T02:40:16.955Z,14.09
2016-09-24T02:40:43.445Z,13.90
2016-09-24T02:41:41.035Z,13.49
2016-09-24T02:42:05.723Z,13.45
2016-09-24T02:42:28.450Z,13.43
2016-09-24T02:42:50.210Z,13.39
2016-09-24T02:43:38.446Z,13.37
2016-09-24T02:44:00.181Z,13.41
2016-09-24T02:44:22.008Z,13.39
2016-09-24T02:44:43.828Z,13.43
2016-09-24T02:45:05.617Z,13.46
2016-09-24T02:45:27.466Z,13.50
2016-09-24T02:45:50.197Z,13.55
2016-09-24T02:46:12.939Z,13.60
2016-09-24T02:46:38.676Z,13.59
2016-09-24T02:47:01.423Z,13.63
2016-09-24T02:47:23.224Z,13.67
2016-09-24T02:47:44.920Z,13.70
2016-09-24T02:48:11.231Z,13.89
2016-09-24T02:48:35.863Z,14.01
2016-09-24T02:48:57.669Z,14.08
2016-09-24T02:49:19.409Z,14.13
2016-09-24T02:49:46.359Z,14.16
2016-09-24T02:50:15.674Z,14.22
2016-09-24T02:50:37.422Z,14.29
2016-09-24T02:50:59.230Z,14.32
2016-09-24T02:51:20.962Z,14.30
2016-09-24T02:51:42.680Z,14.30
2016-09-24T02:52:09.192Z,14.28
2016-09-24T02:52:40.770Z,14.05
2016-09-24T02:53:03.506Z,13.82
2016-09-24T02:53:25.279Z,13.61
2016-09-24T02:53:50.718Z,13.54
2016-09-24T02:54:12.479Z,13.45
2016-09-24T02:54:38.971Z,13.33
2016-09-24T02:55:00.709Z,13.32
2016-09-24T02:55:25.063Z,13.42
2016-09-24T02:55:51.579Z,13.40
2016-09-24T02:56:13.320Z,13.37
2016-09-24T02:56:36.079Z,13.42
2016-09-24T02:56:57.835Z,13.47
2016-09-24T02:57:19.563Z,13.50
2016-09-24T02:57:42.382Z,13.52
2016-09-24T02:58:04.197Z,13.58
2016-09-24T02:58:25.972Z,13.56
2016-09-24T02:58:50.501Z,13.72
2016-09-24T02:59:12.363Z,13.88
2016-09-24T02:59:35.198Z,13.89
2016-09-24T02:59:56.930Z,14.03
2016-09-24T03:00:25.922Z,14.07
2016-09-24T03:01:22.533Z,13.77
2016-09-24T03:01:49.019Z,13.68
2016-09-24T03:02:44.897Z,13.75
2016-09-24T03:03:06.661Z,13.73
2016-09-24T03:03:33.157Z,13.71
2016-09-24T03:03:55.953Z,13.77
2016-09-24T03:04:23.441Z,13.74
2016-09-24T03:04:53.455Z,13.68
2016-09-24T03:07:16.105Z,13.79
2016-09-24T03:08:21.743Z,13.79
2016-09-24T03:08:48.238Z,13.86
2016-09-24T03:09:19.513Z,13.96
2016-09-24T03:10:24.363Z,14.09
2016-09-24T03:10:48.658Z,14.16
2016-09-24T03:11:15.151Z,14.07
2016-09-24T03:11:50.992Z,13.79
2016-09-24T03:12:13.713Z,13.83
2016-09-24T03:12:35.435Z,13.79
2016-09-24T03:12:58.155Z,13.74
2016-09-24T03:13:27.295Z,13.63
2016-09-24T03:13:53.612Z,13.57
2016-09-24T03:14:15.423Z,13.59
2016-09-24T03:14:37.145Z,13.58
2016-09-24T03:15:01.638Z,13.67
2016-09-24T03:15:23.369Z,13.63
2016-09-24T03:15:45.192Z,13.50
2016-09-24T03:16:11.682Z,13.45
2016-09-24T03:16:38.197Z,13.50
2016-09-24T03:16:59.977Z,13.60
2016-09-24T03:17:21.764Z,13.62
2016-09-24T03:17:43.455Z,13.75
2016-09-24T03:18:06.188Z,13.89
2016-09-24T03:18:27.939Z,13.91
2016-09-24T03:18:50.796Z,14.02
2016-09-24T03:19:15.307Z,14.01
2016-09-24T03:20:03.759Z,13.92
2016-09-24T03:20:25.494Z,13.84
2016-09-24T03:20:47.318Z,13.74
2016-09-24T03:21:09.084Z,13.74
2016-09-24T03:21:35.605Z,13.86
2016-09-24T03:21:57.500Z,13.91
2016-09-24T03:22:19.276Z,13.92
2016-09-24T03:23:08.671Z,13.65
2016-09-24T03:23:35.170Z,13.53
2016-09-24T03:24:27.231Z,13.46
2016-09-24T03:24:53.791Z,13.38
2016-09-24T03:25:18.367Z,13.34
2016-09-24T03:25:40.092Z,13.35
2016-09-24T03:26:04.553Z,13.39
2016-09-24T03:27:09.640Z,13.67
2016-09-24T03:27:32.373Z,13.71
2016-09-24T03:27:58.867Z,13.72
2016-09-24T03:28:20.642Z,13.83
2016-09-24T03:28:42.486Z,13.92
2016-09-24T03:29:04.217Z,14.03
2016-09-24T03:29:26.009Z,13.99
2016-09-24T03:29:52.508Z,13.83
2016-09-24T03:30:43.747Z,13.64
2016-09-24T03:31:51.907Z,13.92
2016-09-24T03:32:13.682Z,13.94
2016-09-24T03:32:35.429Z,13.98
2016-09-24T03:33:42.822Z,14.07
2016-09-24T03:34:31.173Z,14.06
2016-09-24T03:34:57.676Z,14.01
2016-09-24T03:35:19.465Z,13.94
2016-09-24T03:35:44.281Z,13.91
2016-09-24T03:36:05.996Z,13.91
2016-09-24T03:36:28.864Z,13.90
2016-09-24T03:37:27.372Z,13.87
2016-09-24T03:38:15.660Z,13.79
2016-09-24T03:39:08.789Z,13.65
2016-09-24T03:39:31.501Z,13.73
2016-09-24T03:39:53.259Z,13.77
2016-09-24T03:40:19.753Z,13.74
2016-09-24T03:40:44.483Z,13.68
2016-09-24T03:41:10.975Z,13.59
2016-09-24T03:41:32.713Z,13.57
2016-09-24T03:41:54.467Z,13.52
2016-09-24T03:42:16.217Z,13.45
2016-09-24T03:42:38.969Z,13.42
2016-09-24T03:43:00.761Z,13.47
2016-09-24T03:43:27.248Z,13.59
2016-09-24T03:43:49.024Z,13.61
2016-09-24T03:44:38.588Z,13.79
2016-09-24T03:45:00.336Z,13.94
2016-09-24T03:45:22.070Z,13.94
2016-09-24T03:45:43.794Z,13.85
2016-09-24T03:46:06.549Z,13.72
2016-09-24T03:46:29.327Z,13.59
2016-09-24T03:46:54.779Z,13.48
2016-09-24T03:47:43.066Z,13.39
2016-09-24T03:48:06.828Z,13.39
2016-09-24T03:48:28.598Z,13.36
2016-09-24T03:48:50.432Z,13.34
2016-09-24T03:49:17.017Z,13.32
2016-09-24T03:49:39.801Z,13.31
2016-09-24T03:50:01.586Z,13.30
2016-09-24T03:50:24.381Z,13.37
2016-09-24T03:50:46.105Z,13.39
2016-09-24T03:51:07.865Z,13.35
2016-09-24T03:51:35.407Z,13.36
2016-09-24T03:51:57.174Z,13.36
2016-09-24T03:52:18.978Z,13.34
2016-09-24T03:53:20.355Z,13.39
2016-09-24T03:53:54.188Z,13.55
2016-09-24T03:54:25.459Z,13.69
2016-09-24T03:55:23.043Z,13.46
2016-09-24T03:56:56.246Z,13.63
2016-09-24T03:57:32.281Z,13.63
2016-09-24T03:58:02.409Z,13.55
2016-09-24T03:58:24.207Z,13.38
2016-09-24T03:58:45.942Z,13.23
2016-09-24T03:59:07.673Z,13.07
2016-09-24T03:59:29.408Z,13.00
2016-09-24T04:00:29.235Z,12.97
2016-09-24T04:00:56.755Z,13.16
2016-09-24T04:02:32.979Z,13.59
2016-09-24T04:03:00.464Z,13.70
2016-09-24T04:04:04.627Z,13.57
2016-09-24T04:04:26.361Z,13.41
2016-09-24T04:04:48.080Z,13.25
2016-09-24T04:05:09.798Z,13.16
2016-09-24T04:05:31.526Z,13.23
2016-09-24T04:05:53.469Z,13.34
2016-09-24T04:06:16.191Z,13.39
2016-09-24T04:06:42.707Z,13.42
2016-09-24T04:07:09.245Z,13.56
2016-09-24T04:07:35.785Z,13.55
2016-09-24T04:08:35.546Z,13.62
2016-09-24T04:09:28.611Z,13.49
2016-09-24T04:09:50.409Z,13.55
2016-09-24T04:10:12.181Z,13.66
2016-09-24T04:10:33.900Z,13.69
2016-09-24T04:10:56.675Z,13.76
2016-09-24T04:12:39.942Z,13.35
2016-09-24T04:13:06.433Z,13.30
2016-09-24T04:13:28.211Z,13.21
2016-09-24T04:13:50.070Z,13.14
2016-09-24T04:14:11.821Z,13.17
2016-09-24T04:14:38.332Z,13.20
2016-09-24T04:15:01.257Z,13.32
2016-09-24T04:15:27.759Z,13.44
2016-09-24T04:15:49.529Z,13.42
2016-09-24T04:16:17.142Z,13.37
2016-09-24T04:16:45.673Z,13.55
2016-09-24T04:17:07.420Z,13.57
2016-09-24T04:17:36.761Z,13.60
2016-09-24T04:18:04.268Z,13.63
2016-09-24T04:18:57.250Z,13.60
2016-09-24T04:19:23.570Z,13.64
2016-09-24T04:19:45.376Z,13.72
2016-09-24T04:20:07.169Z,13.72
2016-09-24T04:20:31.711Z,13.75
2016-09-24T04:20:58.248Z,13.64
2016-09-24T04:21:25.744Z,13.38
2016-09-24T04:21:50.242Z,13.27
2016-09-24T04:22:12.991Z,13.22
2016-09-24T04:22:34.716Z,13.20
2016-09-24T04:22:56.518Z,13.14
2016-09-24T04:23:22.054Z,13.09
2016-09-24T04:23:43.801Z,13.09
2016-09-24T04:24:10.304Z,13.07
2016-09-24T04:24:59.580Z,12.90
2016-09-24T04:25:22.300Z,12.91
2016-09-24T04:25:45.113Z,13.01
2016-09-24T04:26:07.936Z,13.06
2016-09-24T04:26:56.236Z,13.01
2016-09-24T04:27:19.011Z,13.01
2016-09-24T04:27:45.509Z,13.07
2016-09-24T04:28:16.774Z,13.12
2016-09-24T04:28:41.499Z,13.09
2016-09-24T04:29:12.761Z,13.05
2016-09-24T04:30:27.288Z,13.23
2016-09-24T04:30:49.052Z,13.30
2016-09-24T04:31:10.837Z,13.28
2016-09-24T04:31:32.565Z,13.33
2016-09-24T04:31:54.412Z,13.35
2016-09-24T04:32:16.143Z,13.48
2016-09-24T04:32:42.658Z,13.52
2016-09-24T04:33:04.435Z,13.60
2016-09-24T04:33:30.924Z,13.63
2016-09-24T04:34:02.195Z,13.65
2016-09-24T04:34:29.695Z,13.57
2016-09-24T04:34:57.206Z,13.63
2016-09-24T04:35:23.522Z,13.53
2016-09-24T04:36:59.781Z,13.50
2016-09-24T04:38:32.187Z,13.46
2016-09-24T04:38:53.928Z,13.44
2016-09-24T04:39:20.418Z,13.31
2016-09-24T04:39:43.160Z,13.19
2016-09-24T04:40:36.159Z,13.31
2016-09-24T04:41:02.674Z,13.31
2016-09-24T04:41:36.780Z,13.12
2016-09-24T04:42:10.702Z,12.99
2016-09-24T04:42:37.195Z,12.90
2016-09-24T04:42:58.975Z,12.87
2016-09-24T04:43:21.714Z,12.83
2016-09-24T04:43:48.538Z,12.88
2016-09-24T04:44:20.815Z,12.92
2016-09-24T04:44:44.572Z,12.94
2016-09-24T04:45:11.099Z,12.99
2016-09-24T04:45:33.935Z,13.08
2016-09-24T04:46:00.760Z,13.18
2016-09-24T04:46:27.253Z,13.38
2016-09-24T04:46:58.504Z,13.36
2016-09-24T04:47:27.000Z,13.27
2016-09-24T04:47:53.559Z,13.24
2016-09-24T04:48:20.072Z,13.29
2016-09-24T04:48:52.366Z,13.31
2016-09-24T04:49:16.824Z,13.30
2016-09-24T04:49:48.079Z,13.37
2016-09-24T04:50:22.177Z,13.31
2016-09-24T04:51:42.289Z,13.44
2016-09-24T04:52:08.776Z,13.43
2016-09-24T04:52:35.303Z,13.51
2016-09-24T04:53:07.570Z,13.49
2016-09-24T04:53:31.960Z,13.37
2016-09-24T04:54:22.737Z,13.14
2016-09-24T04:54:54.991Z,12.99
2016-09-24T04:55:22.478Z,12.86
2016-09-24T04:55:44.238Z,12.77
2016-09-24T04:56:42.062Z,12.88
2016-09-24T04:57:18.094Z,13.00
2016-09-24T04:57:49.773Z,13.03
2016-09-24T04:58:16.613Z,13.10
2016-09-24T04:59:14.871Z,13.01
2016-09-24T04:59:37.598Z,12.96
2016-09-24T05:00:13.621Z,13.03
2016-09-24T05:00:35.864Z,13.16
2016-09-24T05:00:57.646Z,13.23
2016-09-24T05:01:20.424Z,13.38
2016-09-24T05:02:19.038Z,13.17
2016-09-24T05:02:40.759Z,13.20
2016-09-24T05:03:09.240Z,13.32
2016-09-24T05:03:30.973Z,13.31
2016-09-24T05:03:53.707Z,13.22
2016-09-24T05:04:15.437Z,13.14
2016-09-24T05:04:37.175Z,13.11
2016-09-24T05:05:04.670Z,13.03
2016-09-24T05:05:26.404Z,13.02
2016-09-24T05:05:49.192Z,13.02
2016-09-24T05:06:11.025Z,13.16
2016-09-24T05:06:32.814Z,13.23
2016-09-24T05:06:59.358Z,13.31
2016-09-24T05:07:50.529Z,13.36
2016-09-24T05:08:19.873Z,13.30
2016-09-24T05:08:47.383Z,13.33
2016-09-24T05:09:10.104Z,13.34
2016-09-24T05:09:38.602Z,13.29
2016-09-24T05:10:09.866Z,13.12
2016-09-24T05:10:41.747Z,13.03
2016-09-24T05:11:34.724Z,12.95
2016-09-24T05:12:01.224Z,12.90
2016-09-24T05:12:23.946Z,12.99
2016-09-24T05:12:45.707Z,13.10
2016-09-24T05:13:08.432Z,13.08
2016-09-24T05:13:39.754Z,13.26
2016-09-24T05:14:05.521Z,13.27
2016-09-24T05:14:28.240Z,13.34
2016-09-24T05:14:55.974Z,13.41
2016-09-24T05:15:45.194Z,13.44
2016-09-24T05:16:11.684Z,13.55
2016-09-24T05:16:33.427Z,13.43
2016-09-24T05:16:55.178Z,13.37
2016-09-24T05:17:58.865Z,13.17
2016-09-24T05:18:25.360Z,13.12
2016-09-24T05:18:56.435Z,13.01
2016-09-24T05:19:20.185Z,12.93
2016-09-24T05:19:47.088Z,12.92
2016-09-24T05:20:35.313Z,12.91
2016-09-24T05:21:28.303Z,12.85
2016-09-24T05:21:57.893Z,12.88
2016-09-24T05:22:25.389Z,13.03
2016-09-24T05:23:23.814Z,13.09
2016-09-24T05:23:55.134Z,12.98
2016-09-24T05:24:22.230Z,12.92
2016-09-24T05:24:49.068Z,12.91
2016-09-24T05:25:15.565Z,13.02
2016-09-24T05:25:41.260Z,13.16
2016-09-24T05:26:08.748Z,13.12
2016-09-24T05:26:40.019Z,12.99
2016-09-24T05:27:01.756Z,12.97
2016-09-24T05:27:23.464Z,12.97
2016-09-24T05:29:20.102Z,12.95
2016-09-24T05:29:41.833Z,12.96
2016-09-24T05:30:44.367Z,12.84
2016-09-24T05:31:07.065Z,12.78
2016-09-24T05:31:33.561Z,12.77
2016-09-24T05:31:59.279Z,12.77
2016-09-24T05:32:53.147Z,12.92
2016-09-24T05:33:20.645Z,13.02
2016-09-24T05:33:47.132Z,12.91
2016-09-24T05:34:08.865Z,12.81
2016-09-24T05:34:30.593Z,12.71
2016-09-24T05:35:47.339Z,12.63
2016-09-24T05:36:09.103Z,12.50
2016-09-24T05:36:30.818Z,12.50
2016-09-24T05:36:52.568Z,12.54
2016-09-24T05:37:14.292Z,12.59
2016-09-24T05:37:36.020Z,12.65
2016-09-24T05:38:02.523Z,12.73
2016-09-24T05:38:24.271Z,12.76
2016-09-24T05:38:45.999Z,12.71
2016-09-24T05:39:08.764Z,12.76
2016-09-24T05:39:30.591Z,12.80
2016-09-24T05:39:52.318Z,12.84
2016-09-24T05:40:14.113Z,12.83
2016-09-24T05:40:35.823Z,12.76
2016-09-24T05:40:57.646Z,12.72
2016-09-24T05:41:19.403Z,12.72
2016-09-24T05:41:42.187Z,12.65
2016-09-24T05:42:03.896Z,12.58
2016-09-24T05:42:25.675Z,12.58
2016-09-24T05:42:52.187Z,12.56
2016-09-24T05:43:19.723Z,12.50
2016-09-24T05:43:46.231Z,12.54
2016-09-24T05:44:12.747Z,12.52
2016-09-24T05:45:41.796Z,12.59
2016-09-24T05:46:03.527Z,12.61
2016-09-24T05:46:25.253Z,12.61
2016-09-24T05:46:47.002Z,12.55
2016-09-24T05:47:08.727Z,12.57
2016-09-24T05:47:35.224Z,12.60
2016-09-24T05:47:56.963Z,12.67
2016-09-24T05:48:28.232Z,12.73
2016-09-24T05:49:30.756Z,12.75
2016-09-24T05:49:54.468Z,12.78
2016-09-24T05:50:47.461Z,12.87
2016-09-24T05:51:14.954Z,12.89
2016-09-24T05:51:36.682Z,12.92
2016-09-24T05:51:58.410Z,12.91
2016-09-24T05:52:21.138Z,12.83
2016-09-24T05:52:47.626Z,12.79
2016-09-24T05:53:14.145Z,12.73
2016-09-24T05:54:10.993Z,12.74
2016-09-24T05:54:49.585Z,12.90
2016-09-24T05:55:28.244Z,12.94
2016-09-24T05:56:02.314Z,12.92
2016-09-24T05:56:28.817Z,12.94
2016-09-24T05:56:55.316Z,12.93
2016-09-24T05:57:17.051Z,12.87
2016-09-24T05:57:38.769Z,12.83
2016-09-24T05:58:05.277Z,12.78
2016-09-24T05:58:27.988Z,12.74
2016-09-24T05:58:49.722Z,12.75
2016-09-24T05:59:11.432Z,12.82
2016-09-24T05:59:33.177Z,12.86
2016-09-24T05:59:54.906Z,12.89
2016-09-24T06:00:16.634Z,12.97
2016-09-24T06:00:38.356Z,13.15
2016-09-24T06:01:00.090Z,13.28
2016-09-24T06:01:21.805Z,13.42
2016-09-24T06:01:43.552Z,13.28
2016-09-24T06:02:05.278Z,13.20
2016-09-24T06:02:27.021Z,13.12
2016-09-24T06:02:48.739Z,13.12
2016-09-24T06:03:10.473Z,13.07
2016-09-24T06:03:33.210Z,13.03
2016-09-24T06:03:54.945Z,13.04
2016-09-24T06:04:16.679Z,13.05
2016-09-24T06:04:38.467Z,13.12
2016-09-24T06:05:00.191Z,13.11
2016-09-24T06:05:58.465Z,13.04
2016-09-24T06:06:20.218Z,13.03
2016-09-24T06:06:41.951Z,13.03
2016-09-24T06:07:03.676Z,13.06
2016-09-24T06:07:25.408Z,13.03
2016-09-24T06:07:47.187Z,13.04
2016-09-24T06:08:08.908Z,13.09
2016-09-24T06:08:30.646Z,13.20
2016-09-24T06:08:52.406Z,13.34
2016-09-24T06:09:14.125Z,13.44
2016-09-24T06:09:35.846Z,13.51
2016-09-24T06:09:57.699Z,13.61
2016-09-24T06:10:19.423Z,13.60
2016-09-24T06:10:41.145Z,13.65
2016-09-24T06:11:02.886Z,13.64
2016-09-24T06:11:24.617Z,13.66
2016-09-24T06:11:46.335Z,13.67
2016-09-24T06:12:08.070Z,13.69
2016-09-24T06:12:29.811Z,13.82
2016-09-24T06:12:51.542Z,13.73
2016-09-24T06:13:13.256Z,13.74
2016-09-24T06:13:34.994Z,13.72
2016-09-24T06:13:56.720Z,13.84
2016-09-24T06:14:18.447Z,13.77
2016-09-24T06:14:44.950Z,13.69
2016-09-24T06:15:06.677Z,13.60
2016-09-24T06:15:28.431Z,13.54
2016-09-24T06:15:50.168Z,13.44
2016-09-24T06:16:11.899Z,13.39